Aeroporto :
LOGIN :

Iscrizione | Disclaimer

   EN    FR    IT 

 










Sommario :    VFR   VFR Marginale   IFR   IFR Intensivo   IFR Molto Intensivo
Visibilità : 
Base nubi : 
>= 8 km
>= 3000ft
5 / 8 km
1000 / 3000 ft
1500m / 5 km
500 / 1000 ft
800 / 1500m
200 / 500 ft
< 800m
< 200 ft
Simboli :   Temporali  Nebbia  Neve Forte  Precipitazioni Forti  Vento > 20 kt
SIGMETs :   Varie  Temporali  Ghiacco  Turbolenza  Onda orograficha  Ceneri Vulcaniche






- Altitudine del aeroporto : 495 ft
- Codice IATA : BUD


LHBP - Budapest Ferihegy

ULTIMO METAR :
  • 272100Z 15009KT CAVOK 03/M03 Q1002 NOSIG

METARs OBSOLETI :
  • 272030Z 13009KT CAVOK 01/M03 Q1003 NOSIG
  • 272000Z 15007KT CAVOK 02/M03 Q1003 NOSIG
  • 271930Z 14004KT CAVOK 01/M03 Q1004 NOSIG
  • 271900Z 16003KT CAVOK 02/M04 Q1004 NOSIG
  • 271830Z 19004KT 160V220 CAVOK 03/M04 Q1005 NOSIG

TAF TAF LHBP
Valido dal 27 a 18 ore il 28 a 18 ore UTC


271715Z 2718/2818 22006KT CAVOK
BECMG 2719/2722 17014KT
BECMG 2800/2802 -RASN BKN025 OVC050
TEMPO 2802/2808 3000 SHSN SCT006 SCT025TCU BKN030
BECMG 2804/2806 VRB03KT
BECMG 2810/2812 32016G29KT NSW BKN020
BECMG 2813/2815 CAVOK



MetMap, La meteo Aeronautica in un colpo d'occhio ! - Copyright ORBIFLY Dicembre 2007 - Disclaimer

ORBIFLY MET'MAP TEAM :

Programmazione e sviluppo : Alexandra Zaïnal
Concezione : Baudouin d'Aumeries
Aiuto per la programmazione : Marc-Olivier Méhu
Supporto tecnico e logistico : Manuel Goepfert
Aiuto per la traduzione : Arnaldo La Scala

Contatto : metmap@orbifly.com




FONTI E CREDITI :

   NOAA